Time;durP1;ratioP1;P1;durP2;ratioP2;P2;SDS_P1;SDS_P2;PMS_P1;PMS_P2;Temp;Humidity;BMP_temperature;BMP_pressure;BME280_temperature;BME280_humidity;BME280_pressure;Samples;Min_cycle;Max_cycle;Signal;HPM_P1;HPM_P2
2021/03/22 00:00:51;;;;;;;8.10;1.42;;;4.00;99.90;;;;;;5014320;28;20064;-87
2021/03/22 00:03:19;;;;;;;8.65;1.67;;;3.90;99.90;;;;;;5013513;28;20017;-87
2021/03/22 00:05:46;;;;;;;10.38;1.67;;;3.90;99.90;;;;;;4997764;28;20108;-86
2021/03/22 00:08:14;;;;;;;9.88;1.92;;;3.90;99.90;;;;;;5013935;28;20028;-86
2021/03/22 00:10:46;;;;;;;7.47;1.48;;;3.80;99.90;;;;;;4997692;28;20060;-86
2021/03/22 00:13:20;;;;;;;8.50;1.65;;;3.80;99.90;;;;;;4994867;28;20064;-85
2021/03/22 00:15:47;;;;;;;8.27;2.33;;;3.70;99.90;;;;;;4993971;28;20048;-87
2021/03/22 00:18:23;;;;;;;8.60;1.67;;;3.70;99.90;;;;;;4999419;28;20038;-87
2021/03/22 00:20:50;;;;;;;7.70;1.70;;;3.70;99.90;;;;;;4999510;28;20493;-86
2021/03/22 00:23:18;;;;;;;8.38;1.52;;;3.60;99.90;;;;;;4994245;28;20053;-86
2021/03/22 00:25:46;;;;;;;11.25;1.77;;;3.60;99.90;;;;;;5011208;28;20037;-86
2021/03/22 00:28:15;;;;;;;6.38;2.03;;;3.70;99.90;;;;;;5010704;28;20026;-87
2021/03/22 00:30:43;;;;;;;9.45;2.10;;;3.80;99.90;;;;;;5001018;28;20026;-87
2021/03/22 00:33:09;;;;;;;9.05;2.50;;;3.90;99.90;;;;;;5006885;28;20401;-86
2021/03/22 00:35:36;;;;;;;10.05;2.45;;;3.90;99.90;;;;;;4993974;28;20030;-87
2021/03/22 00:38:02;;;;;;;10.68;2.38;;;3.90;99.90;;;;;;5005224;28;20367;-86
2021/03/22 00:40:33;;;;;;;10.05;2.08;;;3.90;99.90;;;;;;5028590;28;20030;-86
2021/03/22 00:43:03;;;;;;;10.15;2.03;;;3.90;99.90;;;;;;5021026;28;20057;-88
2021/03/22 00:45:29;;;;;;;9.68;2.22;;;3.70;99.90;;;;;;4977868;28;20034;-87
2021/03/22 00:47:55;;;;;;;9.00;2.15;;;3.70;99.90;;;;;;5012204;28;20036;-87
2021/03/22 00:50:38;;;;;;;8.38;2.42;;;3.60;99.90;;;;;;4985350;28;20497;-87
2021/03/22 00:53:05;;;;;;;5.57;1.63;;;3.60;99.90;;;;;;5005399;28;20030;-87
2021/03/22 00:55:31;;;;;;;9.45;2.33;;;3.60;99.90;;;;;;4992184;28;20042;-86
2021/03/22 00:57:58;;;;;;;10.90;2.58;;;3.50;99.90;;;;;;5004867;28;20034;-87
2021/03/22 01:00:37;;;;;;;9.48;2.50;;;3.50;99.90;;;;;;4994667;28;20030;-87
2021/03/22 01:03:12;;;;;;;12.15;3.95;;;3.40;99.90;;;;;;5009202;28;20080;-87
2021/03/22 01:05:39;;;;;;;8.63;2.40;;;3.40;99.90;;;;;;5010906;28;20025;-88
2021/03/22 01:08:10;;;;;;;9.63;2.40;;;3.40;99.90;;;;;;5012018;28;20184;-87
2021/03/22 01:11:04;;;;;;;12.20;2.45;;;3.40;99.90;;;;;;5002676;28;20038;-86
2021/03/22 01:13:36;;;;;;;10.57;2.38;;;3.40;99.90;;;;;;5004682;28;20148;-86
2021/03/22 01:16:04;;;;;;;7.18;2.17;;;3.40;99.90;;;;;;5013937;28;20052;-86
2021/03/22 01:18:40;;;;;;;8.05;1.90;;;3.30;99.90;;;;;;5029571;28;20030;-87
2021/03/22 01:21:20;;;;;;;8.52;2.45;;;3.30;99.90;;;;;;5013239;28;20492;-87
2021/03/22 01:23:46;;;;;;;10.65;2.28;;;3.30;99.90;;;;;;5012367;28;20112;-87
2021/03/22 01:26:20;;;;;;;11.32;2.80;;;3.30;99.90;;;;;;4995412;28;20554;-87
2021/03/22 01:28:47;;;;;;;8.93;2.58;;;3.30;99.90;;;;;;5030228;28;20038;-87
2021/03/22 01:31:17;;;;;;;11.82;3.22;;;3.30;99.90;;;;;;5012895;28;20026;-87
2021/03/22 01:33:48;;;;;;;8.95;2.60;;;3.30;99.90;;;;;;5031723;28;20100;-87
2021/03/22 01:36:24;;;;;;;12.18;3.20;;;3.30;99.90;;;;;;4997313;28;20418;-86
2021/03/22 01:38:51;;;;;;;14.93;3.67;;;3.30;99.90;;;;;;5029622;28;20022;-86
2021/03/22 01:41:45;;;;;;;10.60;2.83;;;3.20;99.90;;;;;;5011942;28;20037;-87
2021/03/22 01:44:28;;;;;;;8.80;3.00;;;3.20;99.90;;;;;;5011606;28;20029;-87
2021/03/22 01:46:59;;;;;;;15.30;3.70;;;3.20;99.90;;;;;;5005501;28;20389;-87
2021/03/22 01:49:50;;;;;;;10.00;3.20;;;3.30;99.90;;;;;;5010395;28;20030;-86
2021/03/22 01:52:17;;;;;;;11.60;2.75;;;3.30;99.90;;;;;;5004613;28;20076;-87
2021/03/22 01:54:44;;;;;;;11.35;2.65;;;3.20;99.90;;;;;;5028230;28;20060;-87
2021/03/22 01:57:52;;;;;;;12.40;3.25;;;3.20;99.90;;;;;;5010084;28;20025;-87
2021/03/22 02:00:24;;;;;;;9.48;2.72;;;3.20;99.90;;;;;;5008209;28;20033;-87
2021/03/22 02:02:59;;;;;;;9.23;3.07;;;3.20;99.90;;;;;;5014860;28;20111;-85
2021/03/22 02:05:28;;;;;;;11.55;2.90;;;3.20;99.90;;;;;;4998399;28;20045;-86
2021/03/22 02:08:05;;;;;;;8.90;2.70;;;3.20;99.90;;;;;;4997466;28;20026;-86
2021/03/22 02:10:33;;;;;;;9.18;3.00;;;3.20;99.90;;;;;;4997239;28;20065;-86
2021/03/22 02:13:00;;;;;;;10.98;2.75;;;3.10;99.90;;;;;;5009993;28;20050;-87
2021/03/22 02:15:27;;;;;;;14.90;3.58;;;3.10;99.90;;;;;;4977985;28;20033;-87
2021/03/22 02:18:26;;;;;;;9.98;2.95;;;3.10;99.90;;;;;;5009998;28;20085;-86
2021/03/22 02:21:10;;;;;;;8.18;2.45;;;3.10;99.90;;;;;;5010294;28;20467;-86
2021/03/22 02:24:02;;;;;;;11.35;2.92;;;3.10;99.90;;;;;;4995223;28;20045;-87
2021/03/22 02:27:25;;;;;;;7.22;2.83;;;3.10;99.90;;;;;;4986383;28;20031;-86
2021/03/22 02:30:33;;;;;;;10.48;3.03;;;3.00;99.90;;;;;;4991760;28;20030;-87
2021/03/22 02:33:37;;;;;;;8.43;3.13;;;3.00;99.90;;;;;;4993431;28;20029;-87
2021/03/22 02:36:09;;;;;;;10.10;3.63;;;3.00;99.90;;;;;;4985714;28;20061;-87
2021/03/22 02:38:52;;;;;;;10.80;3.00;;;3.00;99.90;;;;;;4993341;28;20042;-87
2021/03/22 02:41:25;;;;;;;8.38;2.75;;;3.10;99.90;;;;;;4993065;28;20034;-86
2021/03/22 02:44:07;;;;;;;9.52;2.88;;;3.10;99.90;;;;;;4993503;28;20030;-87
2021/03/22 02:46:35;;;;;;;9.45;3.10;;;3.20;99.90;;;;;;5009938;28;20042;-86
2021/03/22 02:49:07;;;;;;;10.63;3.58;;;3.30;99.90;;;;;;4993521;28;20496;-87
2021/03/22 02:52:04;;;;;;;8.48;2.92;;;3.40;99.90;;;;;;5009837;28;20026;-87
2021/03/22 02:54:47;;;;;;;9.10;3.17;;;3.50;99.90;;;;;;4993030;28;20026;-87
2021/03/22 02:57:49;;;;;;;10.43;3.70;;;3.50;99.90;;;;;;4993356;28;20022;-87
2021/03/22 03:00:23;;;;;;;17.25;3.58;;;3.60;99.90;;;;;;5009417;28;20117;-85
2021/03/22 03:02:53;;;;;;;13.80;3.55;;;3.70;99.90;;;;;;4993228;28;20027;-85
2021/03/22 03:05:24;;;;;;;14.32;3.42;;;3.70;99.90;;;;;;5009656;28;20463;-86
2021/03/22 03:07:50;;;;;;;13.75;4.60;;;3.80;99.90;;;;;;5026150;28;20097;-86
2021/03/22 03:10:18;;;;;;;16.05;4.72;;;3.90;99.90;;;;;;4976830;28;20049;-87
2021/03/22 03:12:44;;;;;;;15.00;4.85;;;3.90;99.90;;;;;;4996032;28;20136;-87
2021/03/22 03:15:14;;;;;;;11.30;4.85;;;4.00;99.90;;;;;;5029454;28;20088;-86
2021/03/22 03:17:41;;;;;;;11.13;4.25;;;4.00;99.90;;;;;;5012825;28;20061;-87
2021/03/22 03:20:11;;;;;;;12.77;4.35;;;4.00;99.90;;;;;;5029240;28;20149;-86
2021/03/22 03:22:40;;;;;;;14.15;4.57;;;4.10;99.90;;;;;;5012736;28;20046;-86
2021/03/22 03:25:10;;;;;;;13.90;4.10;;;4.20;99.90;;;;;;5012233;28;20033;-86
2021/03/22 03:27:39;;;;;;;13.77;4.10;;;4.20;99.90;;;;;;5014756;28;20474;-87
2021/03/22 03:30:09;;;;;;;14.63;4.10;;;4.20;99.90;;;;;;5016393;28;20378;-87
2021/03/22 03:32:36;;;;;;;13.65;4.63;;;4.30;99.90;;;;;;5016384;28;20483;-87
2021/03/22 03:35:04;;;;;;;12.32;4.45;;;4.30;99.90;;;;;;5016628;28;20029;-87
2021/03/22 03:37:38;;;;;;;13.65;5.68;;;4.30;99.90;;;;;;5016097;28;20056;-87
2021/03/22 03:40:20;;;;;;;12.35;4.70;;;4.40;99.90;;;;;;5016319;28;20042;-88
2021/03/22 03:42:47;;;;;;;13.60;4.75;;;4.40;99.90;;;;;;5016266;28;20025;-88
2021/03/22 03:45:15;;;;;;;12.20;4.07;;;4.40;99.90;;;;;;4999951;28;20126;-88
2021/03/22 03:47:42;;;;;;;11.98;4.35;;;4.40;99.90;;;;;;5016396;28;20030;-88
2021/03/22 03:50:23;;;;;;;12.77;4.60;;;4.50;99.90;;;;;;5016509;28;20030;-88
2021/03/22 03:52:49;;;;;;;14.45;4.57;;;4.50;99.90;;;;;;4999009;28;20540;-89
2021/03/22 03:55:18;;;;;;;9.60;4.28;;;4.50;99.90;;;;;;5016220;28;20021;-87
2021/03/22 03:57:49;;;;;;;15.35;5.28;;;4.50;99.90;;;;;;5032680;28;20034;-88
2021/03/22 04:00:30;;;;;;;16.30;5.38;;;4.50;99.90;;;;;;5015935;28;20034;-88
2021/03/22 04:03:00;;;;;;;18.60;5.97;;;4.60;99.90;;;;;;5016096;28;20033;-88
2021/03/22 04:05:28;;;;;;;17.25;5.55;;;4.60;99.90;;;;;;5016081;28;20109;-88
2021/03/22 04:07:55;;;;;;;13.60;4.95;;;4.60;99.90;;;;;;5032305;28;20034;-88
2021/03/22 04:10:22;;;;;;;17.27;6.20;;;4.60;99.90;;;;;;5015795;28;20112;-88
2021/03/22 04:12:48;;;;;;;14.52;5.18;;;4.60;99.90;;;;;;5012258;28;20134;-87
2021/03/22 04:15:16;;;;;;;13.88;4.65;;;4.60;99.90;;;;;;5012501;28;20061;-88
2021/03/22 04:17:44;;;;;;;13.95;4.82;;;4.60;99.90;;;;;;4996364;28;20033;-87
2021/03/22 04:20:11;;;;;;;19.30;5.53;;;4.60;99.90;;;;;;4997759;28;20045;-87
2021/03/22 04:22:37;;;;;;;19.27;5.53;;;4.60;99.90;;;;;;5012359;28;20026;-86
2021/03/22 04:25:05;;;;;;;12.32;4.90;;;4.60;99.90;;;;;;5012603;28;20026;-87
2021/03/22 04:27:31;;;;;;;12.93;5.10;;;4.60;99.90;;;;;;4996265;28;20134;-87
2021/03/22 04:29:58;;;;;;;12.15;5.40;;;4.70;99.90;;;;;;5011975;28;20022;-87
2021/03/22 04:32:24;;;;;;;17.10;6.75;;;4.70;99.90;;;;;;5011763;28;20065;-87
2021/03/22 04:34:50;;;;;;;18.00;5.70;;;4.70;99.90;;;;;;4995767;28;20125;-88
2021/03/22 04:37:16;;;;;;;15.85;6.07;;;4.70;99.90;;;;;;4995302;28;20174;-87
2021/03/22 04:39:42;;;;;;;17.90;6.28;;;4.70;99.90;;;;;;5010691;28;20554;-87
2021/03/22 04:42:08;;;;;;;17.55;5.45;;;4.70;99.90;;;;;;4995629;28;20058;-86
2021/03/22 04:44:36;;;;;;;17.80;6.00;;;4.70;99.90;;;;;;4995867;28;20034;-87
2021/03/22 04:47:06;;;;;;;15.23;5.28;;;4.70;99.90;;;;;;4995762;28;20030;-87
2021/03/22 04:49:35;;;;;;;15.95;5.25;;;4.70;99.90;;;;;;4995623;28;20035;-88
2021/03/22 04:52:04;;;;;;;18.52;5.93;;;4.80;99.90;;;;;;4995652;28;20034;-88
2021/03/22 04:54:34;;;;;;;14.93;5.22;;;4.70;99.90;;;;;;5011818;28;20027;-87
2021/03/22 04:57:25;;;;;;;18.35;5.63;;;4.70;99.90;;;;;;5011929;28;20054;-87
2021/03/22 04:59:51;;;;;;;17.92;4.75;;;4.80;99.90;;;;;;5011391;28;20030;-87
2021/03/22 05:02:19;;;;;;;13.63;4.65;;;4.80;99.90;;;;;;5011348;28;20026;-88
2021/03/22 05:04:46;;;;;;;12.15;4.75;;;4.80;99.90;;;;;;4995385;28;20046;-87
2021/03/22 05:07:13;;;;;;;12.38;5.22;;;4.80;99.90;;;;;;5011411;28;20031;-88
2021/03/22 05:09:39;;;;;;;16.67;5.25;;;4.80;99.90;;;;;;5011369;28;20018;-88
2021/03/22 05:12:07;;;;;;;16.50;5.25;;;4.80;99.90;;;;;;4995180;28;20573;-88
2021/03/22 05:14:35;;;;;;;10.27;4.40;;;4.80;99.90;;;;;;5011247;28;20089;-87
2021/03/22 05:17:01;;;;;;;14.43;5.53;;;4.80;99.90;;;;;;5010926;28;20118;-87
2021/03/22 05:19:29;;;;;;;13.85;4.85;;;4.80;99.90;;;;;;4995791;28;20089;-88
2021/03/22 05:22:07;;;;;;;12.43;4.30;;;4.80;99.90;;;;;;5010959;28;20034;-87
2021/03/22 05:24:35;;;;;;;11.30;4.05;;;4.80;99.90;;;;;;5011019;28;20030;-88
2021/03/22 05:27:11;;;;;;;11.35;4.30;;;4.80;99.90;;;;;;4995146;28;20034;-87
2021/03/22 05:29:37;;;;;;;11.88;4.00;;;4.80;99.90;;;;;;5011039;28;20037;-87
2021/03/22 05:32:04;;;;;;;12.18;4.70;;;4.90;99.90;;;;;;4994560;28;20026;-86
2021/03/22 05:34:31;;;;;;;11.63;4.50;;;4.80;99.90;;;;;;5001292;28;20026;-88
2021/03/22 05:37:00;;;;;;;10.35;4.10;;;4.80;99.90;;;;;;5025676;28;20060;-87
2021/03/22 05:39:31;;;;;;;11.77;4.03;;;4.90;99.90;;;;;;5012440;28;20050;-88
2021/03/22 05:42:30;;;;;;;10.63;3.97;;;4.90;99.90;;;;;;5011887;28;20029;-89
2021/03/22 05:45:31;;;;;;;8.75;3.70;;;4.90;99.90;;;;;;5006625;28;20038;-88
2021/03/22 05:48:22;;;;;;;12.23;3.90;;;4.90;99.90;;;;;;4993558;28;20034;-88
2021/03/22 05:51:21;;;;;;;14.60;3.85;;;4.90;99.90;;;;;;5013093;28;20030;-87
2021/03/22 05:54:00;;;;;;;9.50;3.45;;;4.90;99.90;;;;;;4998473;28;20022;-89
2021/03/22 05:56:39;;;;;;;12.43;3.63;;;4.90;99.90;;;;;;5011926;28;20107;-86
2021/03/22 05:59:17;;;;;;;11.98;3.97;;;4.90;99.90;;;;;;5011697;28;20111;-88
2021/03/22 06:02:00;;;;;;;11.77;3.60;;;4.90;99.90;;;;;;4996920;28;20505;-88
2021/03/22 06:04:50;;;;;;;10.82;3.05;;;4.90;99.90;;;;;;5011820;28;20397;-88
2021/03/22 06:07:21;;;;;;;8.52;2.60;;;4.90;99.90;;;;;;5010697;28;20116;-90
2021/03/22 06:10:02;;;;;;;8.63;2.97;;;4.90;99.90;;;;;;4995279;28;20124;-88
2021/03/22 06:12:36;;;;;;;9.98;2.53;;;4.90;99.90;;;;;;5005014;28;20033;-90
2021/03/22 06:15:40;;;;;;;8.93;2.97;;;4.90;99.90;;;;;;5015009;28;20045;-88
2021/03/22 06:18:31;;;;;;;10.45;2.92;;;5.00;99.90;;;;;;5000465;28;20058;-89
2021/03/22 06:21:07;;;;;;;9.63;2.38;;;4.90;99.90;;;;;;5011081;28;20590;-89
2021/03/22 06:23:46;;;;;;;13.45;3.33;;;4.90;99.90;;;;;;5032998;28;20040;-89
2021/03/22 06:26:39;;;;;;;9.48;2.67;;;4.90;99.90;;;;;;5032499;28;20033;-89
2021/03/22 06:29:24;;;;;;;5.32;2.05;;;4.90;99.90;;;;;;5017496;28;20041;-89
2021/03/22 06:32:30;;;;;;;6.60;1.92;;;4.90;99.90;;;;;;5014726;28;20146;-89
2021/03/22 06:35:04;;;;;;;7.32;2.10;;;5.00;99.90;;;;;;5003702;28;20457;-88
2021/03/22 06:37:33;;;;;;;5.18;1.85;;;5.00;99.90;;;;;;5003810;28;20474;-89
2021/03/22 06:40:15;;;;;;;7.95;2.63;;;5.00;99.90;;;;;;5016350;28;20042;-89
2021/03/22 06:43:00;;;;;;;8.98;2.90;;;5.10;99.90;;;;;;5016065;28;20466;-89
2021/03/22 06:45:39;;;;;;;10.52;2.28;;;5.10;99.90;;;;;;5015249;28;20037;-89
2021/03/22 06:48:34;;;;;;;11.68;2.65;;;5.10;99.90;;;;;;5015403;28;20072;-90
2021/03/22 06:51:02;;;;;;;15.80;2.78;;;5.10;99.90;;;;;;5015502;28;20490;-89
2021/03/22 06:53:43;;;;;;;5.95;2.00;;;5.10;99.90;;;;;;5015655;28;20461;-87
2021/03/22 06:56:10;;;;;;;7.28;2.55;;;5.10;99.90;;;;;;5015830;28;20032;-89
2021/03/22 06:59:02;;;;;;;7.35;2.28;;;5.10;99.90;;;;;;5016058;28;20068;-88
2021/03/22 07:01:40;;;;;;;;;;;;;;;;;;;;;
2021/03/22 07:04:22;;;;;;;5.93;2.17;;;5.10;99.90;;;;;;5032590;28;20028;-88
2021/03/22 07:07:16;;;;;;;5.82;2.03;;;5.20;99.90;;;;;;5015500;28;20029;-88
2021/03/22 07:09:57;;;;;;;9.77;2.55;;;5.30;99.90;;;;;;4997025;28;20030;-89
2021/03/22 07:16:00;;;;;;;;;;;;;;;;;;;;;
2021/03/22 07:18:58;;;;;;;7.38;2.20;;;5.40;99.90;;;;;;5016675;28;20389;-88
2021/03/22 07:21:43;;;;;;;9.20;2.30;;;5.40;99.90;;;;;;4980427;28;20037;-89
2021/03/22 07:24:38;;;;;;;6.82;1.65;;;5.50;99.90;;;;;;5032055;28;20022;-90
2021/03/22 07:27:41;;;;;;;7.13;2.00;;;5.50;99.90;;;;;;5008318;28;20034;-88
2021/03/22 07:30:33;;;;;;;8.40;2.70;;;5.40;99.90;;;;;;4981177;28;20033;-89
2021/03/22 07:33:42;;;;;;;;;;;;;;;;;;;;;
2021/03/22 07:36:44;;;;;;;8.65;2.00;;;5.40;99.90;;;;;;5027448;28;20047;-89
2021/03/22 07:39:46;;;;;;;8.20;1.80;;;5.40;99.90;;;;;;5001619;28;20050;-89
2021/03/22 07:42:30;;;;;;;7.00;1.75;;;5.40;99.90;;;;;;5032826;28;20155;-89
2021/03/22 07:45:50;;;;;;;;;;;;;;;;;;;;;
2021/03/22 07:49:19;;;;;;;5.22;1.17;;;5.40;99.90;;;;;;5018765;28;20025;-88
2021/03/22 07:52:45;;;;;;;4.30;1.25;;;5.40;99.90;;;;;;4969693;28;20187;-90
2021/03/22 07:55:36;;;;;;;5.72;1.25;;;5.40;99.90;;;;;;4963728;28;20072;-90
2021/03/22 08:01:18;;;;;;;4.60;1.40;;;5.50;99.90;;;;;;5018610;28;20309;-90
2021/03/22 08:04:03;;;;;;;;;;;;;;;;;;;;;
2021/03/22 08:06:46;;;;;;;4.75;2.40;;;5.70;99.90;;;;;;5032356;28;20026;-89
2021/03/22 08:13:20;;;;;;;;;;;;;;;;;;;;;
2021/03/22 08:19:58;;;;;;;4.85;1.45;;;6.10;99.90;;;;;;4971768;28;20033;-90
2021/03/22 08:23:06;;;;;;;12.95;1.38;;;6.20;99.90;;;;;;4967291;28;20056;-90
2021/03/22 08:26:18;;;;;;;;;;;;;;;;;;;;;
2021/03/22 08:33:29;;;;;;;;;;;;;;;;;;;;;
2021/03/22 08:36:38;;;;;;;3.58;1.23;;;6.40;99.90;;;;;;4983752;28;20030;-88
2021/03/22 08:39:10;;;;;;;3.25;1.08;;;6.50;99.90;;;;;;4981410;28;20104;-90
2021/03/22 08:42:16;;;;;;;;;;;;;;;;;;;;;
2021/03/22 08:45:49;;;;;;;5.07;1.13;;;7.00;99.90;;;;;;5006502;28;20052;-89
2021/03/22 08:51:41;;;;;;;5.38;1.30;;;7.30;99.90;;;;;;4920720;29;20040;-90
2021/03/22 08:58:23;;;;;;;4.13;1.30;;;7.30;99.90;;;;;;4922087;28;20045;-90
2021/03/22 09:01:21;;;;;;;;;;;;;;;;;;;;;
2021/03/22 09:04:13;;;;;;;5.07;1.70;;;7.40;99.90;;;;;;4885582;29;20052;-90
2021/03/22 09:07:45;;;;;;;;;;;;;;;;;;;;;
2021/03/22 09:14:09;;;;;;;;;;;;;;;;;;;;;
2021/03/22 09:21:37;;;;;;;;;;;;;;;;;;;;;
2021/03/22 09:24:54;;;;;;;;;;;;;;;;;;;;;
2021/03/22 09:31:25;;;;;;;15.32;3.67;;;8.00;99.90;;;;;;4971248;28;20109;-90
2021/03/22 09:34:04;;;;;;;5.90;1.65;;;7.80;99.90;;;;;;4970843;28;20562;-89
2021/03/22 09:37:29;;;;;;;5.05;2.00;;;7.60;99.90;;;;;;5039617;28;20033;-89
2021/03/22 09:40:38;;;;;;;;;;;;;;;;;;;;;
2021/03/22 09:43:33;;;;;;;;;;;;;;;;;;;;;
2021/03/22 09:46:53;;;;;;;;;;;;;;;;;;;;;
2021/03/22 09:56:40;;;;;;;3.33;1.20;;;7.00;99.90;;;;;;5027198;28;20031;-90
2021/03/22 10:00:21;;;;;;;2.88;1.20;;;7.00;99.90;;;;;;5041919;28;20021;-89
2021/03/22 10:06:43;;;;;;;5.93;1.40;;;7.30;99.90;;;;;;4977179;28;20069;-89
2021/03/22 10:10:20;;;;;;;;;;;;;;;;;;;;;
2021/03/22 10:13:51;;;;;;;;;;;;;;;;;;;;;
2021/03/22 10:16:46;;;;;;;2.67;1.02;;;8.90;99.90;;;;;;4920523;29;20034;-90
2021/03/22 10:20:05;;;;;;;2.30;1.00;;;10.40;99.90;;;;;;4919966;28;20109;-90
2021/03/22 10:23:41;;;;;;;;;;;;;;;;;;;;;
2021/03/22 10:27:24;;;;;;;;;;;;;;;;;;;;;
2021/03/22 10:29:56;;;;;;;;;;;;;;;;;;;;;
2021/03/22 10:39:48;;;;;;;;;;;;;;;;;;;;;
2021/03/22 10:43:08;;;;;;;2.30;0.73;;;9.90;99.90;;;;;;4966934;28;20051;-88
2021/03/22 10:45:53;;;;;;;;;;;;;;;;;;;;;
2021/03/22 10:49:16;;;;;;;;;;;;;;;;;;;;;
2021/03/22 10:55:03;;;;;;;;;;;;;;;;;;;;;
2021/03/22 11:01:17;;;;;;;2.08;0.80;;;8.50;99.90;;;;;;5014025;28;20068;-90
2021/03/22 11:04:46;;;;;;;2.45;0.70;;;8.50;99.90;;;;;;5028073;28;20033;-90
2021/03/22 11:07:39;;;;;;;;;;;;;;;;;;;;;
2021/03/22 11:10:34;;;;;;;1.50;0.63;;;8.60;99.90;;;;;;5002673;28;20041;-91
2021/03/22 11:17:19;;;;;;;;;;;;;;;;;;;;;
2021/03/22 11:20:38;;;;;;;2.80;0.75;;;8.70;99.90;;;;;;4960370;28;20439;-89
2021/03/22 11:24:10;;;;;;;2.47;1.10;;;8.90;99.90;;;;;;4915198;29;20088;-89
2021/03/22 11:30:40;;;;;;;1.45;0.50;;;9.00;99.90;;;;;;4893886;29;20521;-89
2021/03/22 11:37:49;;;;;;;3.33;0.95;;;8.90;99.90;;;;;;4931513;29;20491;-89
2021/03/22 11:40:54;;;;;;;;;;;8.80;99.90;;;;;;4912769;29;20063;-88
2021/03/22 11:54:16;;;;;;;1.60;0.55;;;8.70;99.90;;;;;;4956906;29;20039;-88
2021/03/22 11:57:33;;;;;;;;;;;;;;;;;;;;;
2021/03/22 12:00:38;;;;;;;;;;;;;;;;;;;;;
2021/03/22 12:06:52;;;;;;;;;;;;;;;;;;;;;
2021/03/22 12:13:19;;;;;;;1.80;0.60;;;8.80;99.90;;;;;;4963824;28;20042;-88
2021/03/22 12:20:31;;;;;;;;;;;;;;;;;;;;;
2021/03/22 12:33:25;;;;;;;2.60;0.80;;;9.20;99.90;;;;;;4856030;29;20094;-90
2021/03/22 12:36:38;;;;;;;;;;;;;;;;;;;;;
2021/03/22 12:40:07;;;;;;;;;;;;;;;;;;;;;
2021/03/22 12:46:10;;;;;;;1.48;0.50;;;9.20;99.90;;;;;;4916128;29;20792;-90
2021/03/22 12:48:53;;;;;;;1.52;0.77;;;9.40;99.90;;;;;;4966364;28;20069;-89
2021/03/22 12:52:02;;;;;;;2.30;0.50;;;9.50;99.90;;;;;;5005076;28;20057;-88
2021/03/22 12:55:02;;;;;;;;;;;;;;;;;;;;;
2021/03/22 13:04:37;;;;;;;1.40;0.52;;;9.90;99.90;;;;;;4996582;28;21078;-88
2021/03/22 13:07:11;;;;;;;3.22;1.05;;;9.80;99.90;;;;;;5046599;28;20021;-87
2021/03/22 13:12:35;;;;;;;1.63;0.60;;;9.80;99.90;;;;;;5055315;28;20037;-89
2021/03/22 13:18:50;;;;;;;0.88;0.40;;;9.80;99.90;;;;;;5048669;28;20389;-90
2021/03/22 13:25:18;;;;;;;;;;;;;;;;;;;;;
2021/03/22 13:28:23;;;;;;;0.85;0.52;;;10.00;99.20;;;;;;5022117;28;20055;-89
2021/03/22 13:38:52;;;;;;;2.20;0.55;;;9.90;98.80;;;;;;4966428;28;20356;-90
2021/03/22 13:41:49;;;;;;;;;;;;;;;;;;;;;
2021/03/22 13:45:23;;;;;;;;;;;;;;;;;;;;;
2021/03/22 13:52:07;;;;;;;2.92;0.60;;;9.50;99.00;;;;;;4916650;28;20049;-90
2021/03/22 13:54:47;;;;;;;2.22;0.70;;;9.40;99.40;;;;;;4976274;28;20034;-90
2021/03/22 13:57:28;;;;;;;3.00;0.90;;;9.50;99.40;;;;;;5011630;28;20060;-90
2021/03/22 14:00:03;;;;;;;3.00;0.80;;;9.60;99.40;;;;;;5011331;28;20093;-90
2021/03/22 14:03:00;;;;;;;2.28;0.70;;;9.70;99.50;;;;;;5012887;28;20129;-89
2021/03/22 14:06:19;;;;;;;;;;;;;;;;;;;;;
2021/03/22 14:09:44;;;;;;;3.05;1.02;;;9.90;99.30;;;;;;5022745;28;20032;-89
2021/03/22 14:12:18;;;;;;;3.20;0.85;;;9.90;99.40;;;;;;5007566;28;20095;-90
2021/03/22 14:18:31;;;;;;;4.53;2.05;;;9.90;99.10;;;;;;5022256;28;20033;-87
2021/03/22 14:21:29;;;;;;;3.08;1.73;;;9.80;98.80;;;;;;5012277;28;20064;-88
2021/03/22 14:24:22;;;;;;;1.70;0.80;;;9.80;98.80;;;;;;4978929;28;20485;-88
2021/03/22 14:27:39;;;;;;;;;;;;;;;;;;;;;
2021/03/22 14:30:46;;;;;;;;;;;;;;;;;;;;;
2021/03/22 14:33:53;;;;;;;;;;;;;;;;;;;;;
2021/03/22 14:40:21;;;;;;;0.98;0.60;;;10.00;98.30;;;;;;4954981;28;20570;-88
2021/03/22 14:43:22;;;;;;;;;;;;;;;;;;;;;
2021/03/22 14:46:26;;;;;;;;;;;;;;;;;;;;;
2021/03/22 14:49:24;;;;;;;2.45;0.60;;;10.50;97.60;;;;;;4891164;29;20410;-89
2021/03/22 15:02:27;;;;;;;;;;;;;;;;;;;;;
2021/03/22 15:19:11;;;;;;;1.92;0.50;;;9.80;95.70;;;;;;4723420;30;20533;-91
2021/03/22 15:21:50;;;;;;;;;;;;;;;;;;;;;
2021/03/22 15:24:18;;;;;;;2.15;0.45;;;9.70;95.70;;;;;;4789025;29;20493;-89
2021/03/22 15:26:46;;;;;;;2.65;0.60;;;9.70;96.10;;;;;;4810963;29;20042;-89
2021/03/22 15:30:28;;;;;;;;;;;;;;;;;;;;;
2021/03/22 15:33:13;;;;;;;1.42;0.50;;;9.70;95.20;;;;;;4893732;29;20040;-88
2021/03/22 15:36:13;;;;;;;2.05;0.43;;;9.60;95.90;;;;;;4871087;29;20045;-89
2021/03/22 15:39:00;;;;;;;;;;;;;;;;;;;;;
2021/03/22 15:42:07;;;;;;;0.95;0.40;;;9.60;96.10;;;;;;5012294;28;20531;-88
2021/03/22 16:02:30;;;;;;;1.83;0.40;;;9.30;96.30;;;;;;4847056;29;20034;-89
2021/03/22 16:05:47;;;;;;;0.30;0.30;;;9.20;96.40;;;;;;4860942;29;20568;-90
2021/03/22 16:12:29;;;;;;;3.42;0.80;;;9.30;96.70;;;;;;4786414;29;20047;-91
2021/03/22 16:15:53;;;;;;;0.73;0.55;;;9.20;96.40;;;;;;4777770;29;20062;-89
2021/03/22 16:19:25;;;;;;;;;;;;;;;;;;;;;
2021/03/22 16:25:32;;;;;;;2.72;0.40;;;9.00;96.60;;;;;;4861644;29;20516;-89
2021/03/22 16:28:12;;;;;;;1.42;0.50;;;9.10;96.70;;;;;;4862276;29;20051;-90
2021/03/22 16:30:57;;;;;;;1.80;0.40;;;9.10;96.80;;;;;;4940540;29;20062;-89
2021/03/22 16:33:57;;;;;;;1.10;0.40;;;9.00;96.80;;;;;;4974166;28;20030;-88
2021/03/22 16:37:24;;;;;;;1.52;0.63;;;9.00;97.00;;;;;;5012061;28;20018;-89
2021/03/22 16:39:59;;;;;;;1.00;0.57;;;9.00;96.90;;;;;;5001606;28;20124;-89
2021/03/22 16:42:27;;;;;;;0.80;0.50;;;8.90;96.80;;;;;;4991576;28;20449;-89
2021/03/22 16:52:00;;;;;;;1.63;0.47;;;8.80;97.00;;;;;;4935504;28;20474;-89
2021/03/22 17:00:52;;;;;;;;;;;;;;;;;;;;;
2021/03/22 17:03:41;;;;;;;2.78;0.65;;;8.60;97.20;;;;;;4994953;28;20026;-89
2021/03/22 17:06:09;;;;;;;1.23;0.45;;;8.60;97.20;;;;;;5013913;28;20348;-90
2021/03/22 17:08:43;;;;;;;0.75;0.40;;;8.60;97.40;;;;;;4991932;28;20054;-90
2021/03/22 17:11:17;;;;;;;1.00;0.40;;;8.60;97.50;;;;;;5024737;28;20044;-90
2021/03/22 17:17:08;;;;;;;2.95;0.82;;;8.50;97.60;;;;;;4995907;28;20049;-91
2021/03/22 17:19:34;;;;;;;1.42;0.60;;;8.50;97.80;;;;;;4992677;28;20056;-89
2021/03/22 17:22:39;;;;;;;;;;;;;;;;;;;;;
2021/03/22 17:29:45;;;;;;;;;;;;;;;;;;;;;
2021/03/22 17:32:22;;;;;;;;;;;;;;;;;;;;;
2021/03/22 17:35:09;;;;;;;;;;;;;;;;;;;;;
2021/03/22 17:37:46;;;;;;;1.83;0.60;;;8.30;98.40;;;;;;4937613;29;20132;-89
2021/03/22 17:40:43;;;;;;;;;;;;;;;;;;;;;
2021/03/22 17:43:12;;;;;;;1.83;0.65;;;8.30;98.70;;;;;;4997567;28;20026;-89
2021/03/22 17:45:58;;;;;;;2.22;0.75;;;8.30;99.10;;;;;;4976191;28;20029;-90
2021/03/22 17:48:34;;;;;;;1.70;0.80;;;8.20;98.90;;;;;;4990967;28;20056;-90
2021/03/22 17:51:22;;;;;;;2.47;0.93;;;8.20;99.00;;;;;;4986542;28;20046;-89
2021/03/22 17:53:50;;;;;;;2.85;1.00;;;8.20;99.10;;;;;;4996004;28;20049;-89
2021/03/22 17:56:40;;;;;;;3.10;1.40;;;8.20;99.20;;;;;;5021144;28;20061;-89
2021/03/22 17:59:30;;;;;;;3.15;1.30;;;8.20;99.40;;;;;;5011195;28;20075;-90
2021/03/22 18:02:21;;;;;;;3.25;1.92;;;8.20;99.50;;;;;;4995433;28;20461;-90
2021/03/22 18:04:49;;;;;;;2.83;1.55;;;8.10;99.50;;;;;;4977854;28;20064;-90
2021/03/22 18:07:30;;;;;;;3.08;1.85;;;8.10;99.70;;;;;;4997703;28;20041;-90
2021/03/22 18:10:11;;;;;;;5.45;2.60;;;8.10;99.80;;;;;;5016291;28;20041;-89
2021/03/22 18:12:39;;;;;;;5.97;3.45;;;8.00;99.90;;;;;;5008132;28;20065;-87
2021/03/22 18:15:11;;;;;;;4.80;2.90;;;8.00;99.90;;;;;;5011495;28;20117;-89
2021/03/22 18:18:00;;;;;;;3.38;2.40;;;8.00;99.90;;;;;;4992598;28;20472;-90
2021/03/22 18:20:29;;;;;;;5.57;2.40;;;8.00;99.90;;;;;;4931128;29;20174;-89
2021/03/22 18:26:12;;;;;;;3.88;2.15;;;8.00;99.90;;;;;;5012043;28;20030;-90
2021/03/22 18:29:09;;;;;;;6.22;2.40;;;8.00;99.90;;;;;;4973569;28;20461;-90
2021/03/22 18:32:00;;;;;;;4.38;2.10;;;7.90;99.90;;;;;;4988218;28;20663;-89
2021/03/22 18:34:38;;;;;;;4.35;2.55;;;8.00;99.90;;;;;;5023072;28;20045;-90
2021/03/22 18:37:12;;;;;;;3.67;2.58;;;8.00;99.90;;;;;;4997890;28;20037;-90
2021/03/22 18:40:06;;;;;;;3.85;2.35;;;7.90;99.90;;;;;;5011977;28;20073;-91
2021/03/22 18:42:33;;;;;;;5.35;2.78;;;7.90;99.90;;;;;;4996152;28;20045;-89
2021/03/22 18:45:10;;;;;;;4.30;2.40;;;7.90;99.90;;;;;;5011727;28;20033;-90
2021/03/22 18:47:48;;;;;;;3.95;2.65;;;7.90;99.90;;;;;;5029895;28;20030;-90
2021/03/22 18:51:05;;;;;;;4.80;2.65;;;7.90;99.90;;;;;;5015345;28;20041;-90
2021/03/22 18:53:40;;;;;;;4.28;2.50;;;7.80;99.90;;;;;;5023679;28;20089;-91
2021/03/22 18:56:15;;;;;;;4.38;2.50;;;7.80;99.90;;;;;;5029081;28;20034;-91
2021/03/22 18:59:13;;;;;;;5.45;2.60;;;7.80;99.90;;;;;;5036703;28;20119;-90
2021/03/22 19:01:49;;;;;;;4.22;2.28;;;7.80;99.90;;;;;;4995067;28;20077;-89
2021/03/22 19:04:28;;;;;;;;;;;;;;;;;;;;;
2021/03/22 19:07:14;;;;;;;3.80;2.45;;;7.80;99.90;;;;;;5016948;28;20021;-91
2021/03/22 19:09:47;;;;;;;3.35;2.20;;;7.80;99.90;;;;;;5010577;28;20128;-90
2021/03/22 19:12:21;;;;;;;3.05;2.22;;;7.80;99.90;;;;;;5028800;28;20083;-90